createdAt,value
2017-10-21T00:08:13.774Z,0.0
2017-10-21T00:18:27.938Z,0.0
2017-10-21T00:28:42.092Z,0.0
2017-10-21T00:38:53.329Z,0.0
2017-10-21T00:49:07.594Z,0.0
2017-10-21T00:59:21.835Z,0.0
2017-10-21T01:09:36.025Z,0.0
2017-10-21T01:19:50.150Z,0.0
2017-10-21T01:30:04.571Z,0.0
2017-10-21T01:40:18.776Z,0.0
2017-10-21T01:50:33.037Z,0.0
2017-10-21T02:00:47.262Z,0.0
2017-10-21T02:10:58.527Z,0.0
2017-10-21T02:21:12.782Z,0.0
2017-10-21T02:31:26.921Z,0.0
2017-10-21T02:41:38.345Z,0.0
2017-10-21T02:51:52.638Z,0.0
2017-10-21T03:02:04.677Z,0.0
2017-10-21T03:12:15.880Z,0.0
2017-10-21T03:22:29.266Z,0.0
2017-10-21T03:32:43.541Z,0.0
2017-10-21T03:42:56.054Z,0.0
2017-10-21T03:53:10.247Z,0.0
2017-10-21T04:03:24.330Z,0.0
2017-10-21T04:13:39.017Z,0.0
2017-10-21T04:23:53.641Z,0.0
2017-10-21T04:34:07.814Z,0.0
2017-10-21T04:44:22.019Z,0.0
2017-10-21T04:54:33.557Z,0.0
2017-10-21T05:04:48.500Z,0.0
2017-10-21T05:15:03.152Z,0.0
2017-10-21T05:25:47.938Z,0.0
2017-10-21T05:36:32.746Z,0.0
2017-10-21T05:46:44.685Z,0.0
2017-10-21T05:56:59.513Z,0.0
2017-10-21T06:07:13.153Z,5.0
2017-10-21T06:17:57.961Z,15.0
2017-10-21T06:28:09.266Z,30.0
2017-10-21T06:38:24.314Z,35.0
2017-10-21T06:48:38.896Z,30.0
2017-10-21T06:58:53.754Z,25.0
2017-10-21T07:09:08.344Z,40.0
2017-10-21T07:19:20.537Z,60.0
2017-10-21T07:29:34.525Z,65.0
2017-10-21T07:39:45.929Z,65.0
2017-10-21T07:50:00.064Z,35.0
2017-10-21T08:00:14.323Z,50.0
2017-10-21T08:10:28.820Z,95.0
2017-10-21T08:20:43.104Z,80.0
2017-10-21T08:30:57.867Z,55.0
2017-10-21T08:41:12.310Z,60.0
2017-10-21T08:51:26.423Z,75.0
2017-10-21T09:01:37.830Z,60.0
2017-10-21T09:11:51.997Z,55.0
2017-10-21T09:22:06.195Z,65.0
2017-10-21T09:32:21.249Z,55.0
2017-10-21T09:42:35.613Z,55.0
2017-10-21T09:52:47.775Z,30.0
2017-10-21T10:03:03.037Z,45.0
2017-10-21T10:13:47.887Z,35.0
2017-10-21T10:24:34.002Z,50.0
2017-10-21T10:34:47.702Z,50.0
2017-10-21T10:45:02.122Z,95.0
2017-10-21T10:55:14.064Z,85.0
2017-10-21T11:05:27.649Z,70.0
2017-10-21T11:15:41.746Z,85.0
2017-10-21T11:25:52.749Z,95.0
2017-10-21T11:36:06.334Z,190.0
2017-10-21T11:46:21.201Z,135.0
2017-10-21T11:56:35.829Z,310.0
2017-10-21T12:06:50.683Z,190.0
2017-10-21T12:17:05.131Z,250.0
2017-10-21T12:27:51.384Z,940.0
2017-10-21T12:38:07.284Z,245.0
2017-10-21T12:48:21.564Z,1195.0
2017-10-21T12:58:42.119Z,315.0
2017-10-21T13:08:58.265Z,250.0
2017-10-21T13:19:13.466Z,125.0
2017-10-21T13:29:28.547Z,80.0
2017-10-21T13:40:14.034Z,35.0
2017-10-21T13:50:29.868Z,15.0
2017-10-21T14:00:47.928Z,10.0
2017-10-21T14:11:01.838Z,40.0
2017-10-21T14:21:53.180Z,1600.0
2017-10-21T14:32:07.877Z,1470.0
2017-10-21T14:42:21.751Z,1250.0
2017-10-21T14:52:36.011Z,220.0
2017-10-21T15:02:50.345Z,145.0
2017-10-21T15:13:04.299Z,175.0
2017-10-21T15:23:18.697Z,155.0
2017-10-21T15:33:32.932Z,100.0
2017-10-21T15:43:46.969Z,70.0
2017-10-21T15:53:58.209Z,60.0
2017-10-21T16:04:12.438Z,40.0
2017-10-21T16:14:27.599Z,20.0
2017-10-21T16:24:41.866Z,5.0
2017-10-21T16:34:56.631Z,0.0
2017-10-21T16:45:10.444Z,0.0
2017-10-21T16:55:24.453Z,0.0
2017-10-21T17:05:38.761Z,0.0
2017-10-21T17:15:53.784Z,0.0
2017-10-21T17:26:10.518Z,0.0
2017-10-21T17:36:25.591Z,0.0
2017-10-21T17:46:39.853Z,0.0
2017-10-21T17:56:54.891Z,0.0
2017-10-21T18:07:09.084Z,0.0
2017-10-21T18:17:28.596Z,0.0
2017-10-21T18:28:17.983Z,0.0
2017-10-21T18:38:33.041Z,0.0
2017-10-21T18:48:48.479Z,0.0
2017-10-21T18:59:04.163Z,0.0
2017-10-21T19:09:49.736Z,0.0
2017-10-21T19:20:03.894Z,0.0
2017-10-21T19:30:27.724Z,0.0
2017-10-21T19:40:42.504Z,0.0
2017-10-21T19:51:06.941Z,0.0
2017-10-21T20:01:24.881Z,0.0
2017-10-21T20:12:33.216Z,0.0
2017-10-21T20:22:47.745Z,0.0
2017-10-21T20:33:00.487Z,0.0
2017-10-21T20:43:14.555Z,0.0
2017-10-21T20:53:28.244Z,0.0
2017-10-21T21:03:42.402Z,0.0
2017-10-21T21:13:56.691Z,0.0
2017-10-21T21:24:10.976Z,0.0
2017-10-21T21:34:25.947Z,0.0
2017-10-21T21:44:41.059Z,0.0
2017-10-21T21:54:54.819Z,0.0
2017-10-21T22:05:08.749Z,0.0
2017-10-21T22:15:22.975Z,0.0
2017-10-21T22:25:37.354Z,0.0
2017-10-21T22:36:23.023Z,0.0
2017-10-21T22:46:37.313Z,0.0
2017-10-21T22:56:51.390Z,0.0
2017-10-21T23:07:06.311Z,0.0
2017-10-21T23:17:19.911Z,0.0
2017-10-21T23:27:35.119Z,0.0
2017-10-21T23:37:51.254Z,0.0
2017-10-21T23:48:06.027Z,0.0
2017-10-21T23:58:50.500Z,0.0
